Dernières infos :  

13/08/2017  Mise à jour des tableaux d'analyses décadaires
02/08/2017 Mise en ligne de la synthèse climatologique de Juillet 2017 : 
CLIQUEZ ICI
01/08/2017  Mise à jour des tableaux d'analyses décadaires, mensuelles et annuelles : rubrique climatologie

31/07/2017 Vidéo du violent orage de dimanche soir 30/07 : CLIQUEZ ICI   

Si l'entête du tableau ne s'affiche pas correctement, => actualisez la page (F5 avec Internet Explorer, Chrome...).
Utilisez l'ascenseur sur la droite des lignes du tableau pour faire défiler verticalement les jours du mois.

TABLEAU DES DONNEES COMPLETES NOAA DE MARS 2016

DATE TEMPERATURE
sous abri
TEMPARATURE 
au sol
VENT  et  Indice de Refroidissement Eolien  PRECIPITATIONS (en mm/m2)
et Intensité
PRESSION ATMOSPHERIQUE (en hPa) HUMIDITE de l'AIR RADIATIONS SOLAIRES (en W/m2)
Mini Moy. Maxi Mini Moy. Maxi Moyen Rafale I.R.E.
Minii
Précip. jour Cumul mois Intensité Maxi Mini Moy. Maxi Mini Moy. Maxi Pic maxi du jour Total jour
01/03/2016 0.9° 4.4° 8.2° -0.6° 12.8° 5km/h dir NNO 22.5km/h dir SSE -1.3° 1 1 0.8mm/h 1019.7 1023.3 1025.6 56% 77.5% 93% 807 37 359
02/03/2016 3.1° 6.7° 10.9° 1.7° 6.2° 12.8° 8.5km/h dir S 49.9km/h dir O -0.3° 3.6 4.6 26.4mm/h 1007.3 1011.8 1019.7 71% 87.4% 93% 701 16 057
03/03/2016 1.1° 3.7° 6.5° 3.4° 8.9° 6km/h dir S 38.6km/h dir NO -2.2° 9.8 14.4 11.8mm/h 1006.7 1008.6 1012.2 84% 92.4% 95% 559 15 112
04/03/2016 2.3° 5.6° 9.3° 1.1° 5.1° 8.9° 12.9km/h dir S 62.8km/h dir SSE -0.2° 21.8 36.2 10mm/h 995.2 1001.4 1011.5 76% 88.5% 95% 325 13 479
05/03/2016 3.2° 5.4° 11.4° 2.8° 5.6° 15° 7.4km/h dir S 35.4km/h dir O 1.1° 12 48.2 23.6mm/h 994.2 997.5 1004.2 65% 89.1% 95% 844 25 741
06/03/2016 -0.2° 3.1° 7.4° -2.2° 2.5° 11.7° 3.7km/h dir OSO 32.2km/h dir NNO -2.1° 0.8 49 1.4mm/h 1004.2 1006.3 1007.6 69% 88.2% 94% 881 19 226
07/03/2016 -1.4° 1.7° 7.2° -3.3° 1.5° 13.9° 3.7km/h dir SSE 30.6km/h dir O -2.7° 3.4 52.4 3.4mm/h 1004.6 1006.3 1010.8 72% 90.4% 95% 867 24 437
08/03/2016 -2.1° 2.1° -4.4° 12.8° 5.8km/h dir N 24.1km/h dir NO -3.4° 0.8 53.2 1010.9 1016.5 1020.3 68% 86.8% 95% 888 26 985
09/03/2016 -4.1° 1.4° 7.3° -6.1° 0.8° 8.3° 8.2km/h dir S 48.3km/h dir SSO -6.2° 5.8 59 5.2mm/h 1003.7 1009.3 1017.8 54% 84.8% 95% 483 24 726
10/03/2016 2.7° 6.2° 10.8° 1.1° 6.7° 17.8° 7.2km/h dir NNO 29km/h dir NNO 1.5° 0.2 59.2 1007.4 1013.7 1018.4 65% 83% 95% 935 49 316
11/03/2016 1.4° 6.1° 11.6° 16.7° 11.3km/h dir N 37km/h dir N -1.8° 0 59.2 1018.2 1019.8 1022.1 60% 78.6% 92% 763 53 740
12/03/2016 -1.5° 5.3° 10.6° -3.9° 5.2° 16.1° 7.1km/h dir NNO 29km/h dir NNO -1.8° 0 59.2 1021.9 1022.7 1023.9 59% 79.1% 95% 749 36 797
13/03/2016 1.4° 5.7° 9.9° -1.7° 5.2° 13.3° 9.3km/h dir N 29km/h dir NNE -1.2° 0 59.2 1020.1 1021.5 1022.5 68% 78.8% 90% 744 39 503
14/03/2016 -1.8° 5.3° 13.1° -3.3° 5.4° 18.3° 4.3km/h dir NNO 22.5km/h dir NO -3.1° 0 59.2 1020.7 1022.1 1023.7 56% 78.8% 95% 693 55 731
15/03/2016 -1.9° 5.4° 12.1° -3.9° 5.8° 18.3° 5.3km/h dir NNO 25.7km/h dir N -2.4° 0.2 59.4 1015 1020.2 1023.3 57% 77.9% 95% 712 51 717
16/03/2016 3.3° 4.2° 5.8° 2.2° 4.1° 6.7° 7.9km/h dir N 32.2km/h dir N -0.2° 1.2 60.6 1.4mm/h 1013.2 1015.8 1021.4 72% 85% 94% 243 14 026
17/03/2016 2.1° 6.2° 13.4° -1.1° 6.3° 16.7° 4.7km/h dir N 24.1km/h dir NNO 1.3° 0 60.6 1020.9 1022.7 1025.1 48% 81.9% 95% 865 52 878
18/03/2016 -1.8° 5.9° 14.5° -3.9° 5.5° 19.4° 3.5km/h dir NNO 20.9km/h dir NNO -2.3° 0.2 60.8 1017.3 1019.5 1021.4 51% 78.6% 95% 721 58 483
19/03/2016 -1.2° 7.5° 16.4° -3.3° 7.2° 21.1° 3.5km/h dir SE 16.1km/h dir N -1.8° 0 60.8 1015.6 1017.1 1018.5 46% 75.2% 95% 726 58 591
20/03/2016 2.3° 4.6° 8.4° 4.4° 13.3° 2.6km/h dir NO 11.3km/h dir ENE 1.3° 0 60.8 1015.8 1017.1 1018.7 81% 90.1% 95% 745 21 520
21/03/2016 1.6° 5.8° 12.1° 6.2° 17.2° 7.7km/h dir NNO 25.7km/h dir NO -1.1° 0 60.8 1014.4 1016.1 1017.9 62% 82.2% 95% 909 46 360
22/03/2016 -1.9° 6.9° 14.3° -4.4° 6.9° 19.4° 10.6km/h dir NNE 51.5km/h dir N -1.9° 0 60.8 1005.2 1009.2 1014.4 46% 70.3% 95% 756 60 811
23/03/2016 4.1° 8.2° 12.6° 2.8° 8.1° 17.2° 19km/h dir N 64.4km/h dir NNE -0.2° 0 60.8 1004.3 1006.9 1011.6 54% 67% 79% 888 53 510
24/03/2016 1.3° 7.2° 12.7° -1.7° 6.9° 18.3° 7.9km/h dir NNO 32.2km/h dir NNO -0.4° 0 60.8 1011.6 1015.2 1018.1 50% 71.7% 91% 816 60 589
25/03/2016 2.7° 6.9° 9.3° 0.6° 6.5° 10° 3.7km/h dir S 17.7km/h dir SSE 2.7° 2 62.8 1.8mm/h 1017.7 1019.4 1021.3 82% 87.3% 92% 230 14 302
26/03/2016 5.2° 12° 19.4° 2.2° 12.3° 23.3° 4.8km/h dir S 40.2km/h dir SO 5.2° 0.4 63.2 3.2mm/h 1011 1016.8 1021.2 45% 73.4% 96% 835 66 469
27/03/2016 5.3° 10° 13.7° 2.2° 9.6° 16.7° 7.7km/h dir S 45.1km/h dir S 5.4° 7.6 70.8 6.6mm/h 1009.5 1014.6 1018.2 61% 77.9% 93% 724 31 604
28/03/2016 5.1° 10.2° 15.8° 1.7° 9.5° 16.7° 13.5km/h dir S 57.9km/h dir S 2.6 73.4 2.8mm/h 1008.4 1010.1 1013.3 60% 78.7% 92% 654 30 091
29/03/2016 8.8° 12.6° 16.3° 7.8° 12.4° 20° 7.2km/h dir S 30.6km/h dir S 8.6° 0.4 73.8 1mm/h 1012 1013.3 1014.7 61% 78.4% 88% 654 30 627
30/03/2016 12.5° 15.8° 21.3° 11.1° 15.7° 23.9° 13.8km/h dir S 56.3km/h dir SSO 11.2° 0 73.8 1009 1011.6 1013.4 51% 68.6% 83% 981 52 201
31/03/2016 10.8° 14.9° 19.6° 10° 14.2° 22.8° 7.4km/h dir S 35.4km/h dir 0 9.8° 0 73.8 1001.4 1005.6 1010 52% 67% 84% 777 20 702

RETOUR ACCUEIL


Date de création : 03/04/2016 : 21:45
Catégorie : ARCHIVES 2002 à 2016 - ANNEES 2010 à 2019 - ANNEE 2016 - MARS 2016
Page lue 986 fois


Réactions à cet article

Personne n'a encore laissé de commentaire.
Soyez donc le premier !